東京国際空港の過去48時間の天気

東京国際空港 (Tokyo/Intl)

現在時刻: 7/14 05:16 JST (7/13 20:16 UTC) 以下の時間は現地時間です。

過去48時間のMETAR気象情報
時間 風向 風速(m/s) 視程 気温(℃) 湿度(%) 気圧(hPa) 天気現象
14 05:00 南南西 4 10km以上 23 94 1005 弱い雨
14 04:30 6 10km以上 23 94 1005 弱い雨
14 04:00 南南西 5 10km以上 23 94 1005 弱い雨
14 03:30 南南西 5 10km以上 23 89 1005 弱い雨
14 03:00 南西 8 10km以上 23 89 1006 弱い雨
14 02:30 南南西 4 10km以上 23 89 1006 弱い雨
14 02:00 南南西 4 10km以上 23 89 1006 弱い雨
14 01:30 南南西 5 10km以上 23 89 1007 弱い雨
14 01:00 南南西 5 10km以上 23 89 1007 弱い雨
14 00:30 南南西 6 10km以上 23 89 1007 弱いしゅう雨
14 00:00 南南西 6 10km以上 23 89 1008 弱いしゅう雨
13 23:30 南南西 6 10km以上 23 94 1008 弱いしゅう雨
13 23:00 南南西 6 10km以上 23 94 1009 弱いしゅう雨
13 22:30 南南西 6 10km以上 23 94 1009 弱いしゅう雨
13 22:00 4 10km以上 23 94 1009 弱いしゅう雨
13 21:30 5 10km以上 23 89 1009 弱いしゅう雨
13 21:00 5 10km以上 22 94 1009 弱いしゅう雨
13 20:30 南南東 5 10km以上 22 94 1009 弱い雨
13 20:00 南南東 5 10km以上 22 94 1009 弱い雨
13 19:43 南南東 6 10km以上 22 94 1009 弱い雨
13 19:30 南南東 6 10km以上 22 94 1009 弱い雨
13 19:00 6 10km以上 22 94 1009 弱い雨
13 18:44 6 9000m 22 94 1010 弱い雨
13 18:30 5 10km以上 22 94 1010 弱い雨
13 18:00 5 10km以上 22 94 1010 弱い雨
13 17:30 6 10km以上 22 94 1010 弱い雨
13 17:00 5 10km以上 22 94 1010 弱い雨
13 16:30 5 10km以上 22 88 1010 弱いしゅう雨
13 16:00 5 10km以上 22 88 1011 弱い雨
13 15:30 南南西 5 10km以上 23 83 1010 弱い雨
13 15:00 4 10km以上 23 83 1011 弱い雨
13 14:30 4 10km以上 24 78 1011 弱いしゅう雨
13 14:00 2 10km以上 23 83 1011 弱いしゅう雨
13 13:30 東南東 2 10km以上 23 83 1011 周辺でしゅう雨
13 13:00 東南東 2 10km以上 23 83 1011 周辺でしゅう雨
13 12:30 東南東 2 10km以上 23 83 1011 周辺でしゅう雨
13 12:00 東南東 2 10km以上 23 78 1012
13 11:30 東南東 2 10km以上 23 83 1012
13 11:00 東南東 2 10km以上 22 83 1012
13 10:30 3 10km以上 22 88 1011
13 10:00 2 10km以上 21 88 1012
13 09:30 2 10km以上 21 88 1012
13 09:00 東北東 3 10km以上 21 88 1011
13 08:30 東北東 3 10km以上 20 94 1011
13 08:00 北北東 3 10km以上 20 94 1011
13 07:30 東北東 4 10km以上 20 94 1011
13 07:00 東北東 4 10km以上 20 94 1011 弱い雨
13 06:30 北東 4 10km以上 20 94 1011
13 06:00 北東 4 10km以上 20 94 1011 弱い雨
13 05:30 北東 4 10km以上 20 88 1010 弱い雨
13 05:00 北北東 4 10km以上 20 88 1010 弱いしゅう雨
13 04:30 北東 5 10km以上 20 94 1010 周辺でしゅう雨
13 04:00 北東 5 10km以上 20 88 1009
13 03:30 北東 6 10km以上 20 94 1009 弱いしゅう雨
13 03:00 東北東 6 10km以上 20 94 1009 弱いしゅう雨
13 02:30 東北東 7 10km以上 20 94 1009
13 02:00 東北東 10 10km以上 20 100 1008
13 01:44 9 10km以上 20 100 1008 周辺でしゅう雨
13 01:30 8 8000m 20 94 1008 弱いしゅう雨
13 01:00 6 6000m 20 94 1009 しゅう雨
13 00:30 東北東 5 10km以上 20 94 1009 弱いしゅう雨
13 00:00 8 10km以上 21 88 1009 弱いしゅう雨
12 23:30 東北東 6 10km以上 21 88 1009 弱いしゅう雨
12 23:00 東北東 6 10km以上 21 88 1009 弱いしゅう雨
12 22:43 東北東 5 10km以上 21 94 1009 弱いしゅう雨
12 22:30 東北東 5 10km以上 21 88 1009 弱いしゅう雨
12 22:00 北東 7 10km以上 21 88 1008 弱いしゅう雨
12 21:30 北東 6 10km以上 22 83 1008 弱いしゅう雨
12 21:00 東北東 7 10km以上 22 83 1007
12 20:30 東北東 7 10km以上 22 88 1007
12 20:00 東北東 7 10km以上 23 83 1006
12 19:30 東北東 7 10km以上 23 89 1006
12 19:00 東北東 7 10km以上 24 89 1005
12 18:30 東北東 8 10km以上 24 89 1005
12 18:00 東北東 9 10km以上 24 89 1004
12 17:30 東北東 9 10km以上 25 89 1003
12 17:18 5 10km以上 27 84 1003
12 17:00 4 10km以上 29 70 1002
12 16:30 南南西 5 10km以上 30 66 1002
12 16:00 6 10km以上 30 66 1002
12 15:30 6 10km以上 30 70 1001
12 15:00 6 10km以上 30 66 1001
12 14:30 6 10km以上 29 70 1001
12 14:00 6 10km以上 31 66 1001
12 13:30 5 10km以上 31 70 1001
12 13:00 南南東 5 10km以上 30 70 1001
12 12:30 南南東 6 10km以上 30 75 1001
12 12:00 南南東 6 10km以上 29 79 1001
12 11:30 6 10km以上 29 74 1001
12 11:00 6 10km以上 29 74 1001
12 10:30 7 10km以上 29 79 1002
12 10:00 6 10km以上 29 74 1002
12 09:30 南南西 6 10km以上 29 74 1002
12 09:00 6 10km以上 29 74 1002
12 08:30 6 10km以上 29 70 1002
12 08:00 3 10km以上 29 74 1002
12 07:30 西南西 4 10km以上 29 74 1002
12 07:00 南南西 5 10km以上 28 79 1002
12 06:30 南南西 6 10km以上 26 89 1002
12 06:00 南西 5 10km以上 26 89 1002
12 05:30 西南西 3 10km以上 26 89 1002 周辺でしゅう雨
RJTT 132000Z 20008KT 9999 -RA FEW007 SCT010 BKN040 23/22 Q1005 TEMPO 4000 SHRA BR FEW008 BKN012
RJTT 131930Z 19011KT 9999 -RA FEW015 SCT050 BKN130 23/22 Q1005 TEMPO 4000 SHRA BR RMK 1CU015 3SC050 7AC130 A2969
RJTT 131900Z 21010KT 9999 -RA FEW015 BKN050 23/22 Q1005 NOSIG RMK 1CU015 7SC050 A2970
RJTT 131830Z 21009KT 9999 -RA FEW015 SCT070 OVC120 23/21 Q1005 NOSIG RMK 1CU015 3AC070 8AS120 A2970
RJTT 131800Z 22015KT 9999 -RA FEW015 SCT090 OVC120 23/21 Q1006 NOSIG RMK 1CU015 3AC090 8AS120 A2971
RJTT 131730Z 21008KT 9999 -RA FEW009 OVC130 23/21 Q1006 NOSIG RMK 1ST009 8AS130 A2972
RJTT 131700Z 21008KT 170V240 9999 -RA FEW009 OVC130 23/21 Q1006 NOSIG RMK 1ST009 8AS130 A2973
RJTT 131630Z 20009KT 9999 -RA FEW010 OVC140 23/21 Q1007 NOSIG RMK 1ST010 8AS140 A2974
RJTT 131600Z 21009KT 9999 -RA FEW010 OVC130 23/21 Q1007 NOSIG RMK 1ST010 8AS130 A2975
RJTT 131530Z 20012KT 9999 -SHRA FEW008 SCT010 BKN130 23/21 Q1007 NOSIG RMK 1ST008 3CU010 7AC130 A2976
RJTT 131500Z 20012KT 9999 -SHRA FEW007 SCT010 BKN130 23/21 Q1008 NOSIG RMK 1ST007 3CU010 7AC130 A2977
RJTT 131430Z 20012KT 9999 -SHRA FEW007 SCT010 BKN030 23/22 Q1008 NOSIG RMK 1ST007 4CU010 7CU030 A2979
RJTT 131400Z 20012KT 9999 -SHRA FEW006 SCT010 BKN030 23/22 Q1009 NOSIG RMK 1ST006 3CU010 7CU030 A2980
RJTT 131330Z 20012KT 9999 -SHRA FEW007 SCT008 BKN025 23/22 Q1009 TEMPO FEW005 BKN008 RMK 1ST007 3ST008 7CU025 A2981
RJTT 131300Z 17007KT 150V210 9999 -SHRA FEW007 SCT009 BKN020 23/22 Q1009 TEMPO FEW005 BKN008 RMK 1ST007 3ST009 7CU020 A2981
RJTT 131230Z 19010KT 150V210 9999 -SHRA FEW008 BKN010 BKN030 23/21 Q1009 TEMPO FEW005 BKN008 RMK 1ST008 5CU010 7SC030 A2981
RJTT 131200Z 17010KT 9999 -SHRA FEW008 SCT010 BKN110 22/21 Q1009 TEMPO FEW008 BKN012 RMK 1ST008 4CU010 7AC110 A2980
RJTT 131130Z 16009KT 9999 -RA FEW008 BKN010 BKN015 22/21 Q1009 TEMPO FEW005 BKN008 RMK 1ST008 5ST010 6SC015 A2982
RJTT 131100Z 16010KT 9999 -RA FEW007 SCT009 BKN015 22/21 Q1009 TEMPO FEW005 BKN008 RMK 1ST007 3ST009 6SC015 A2982
RJTT 131043Z 16011KT 9999 -RA FEW005 SCT009 BKN015 22/21 Q1009 RMK 1ST005 4ST009 6SC015 A2981
RJTT 131030Z 16012KT 9999 -RA FEW005 BKN009 BKN015 22/21 Q1009 NOSIG RMK 1ST005 5ST009 6SC015 A2981
RJTT 131000Z 17012KT 9999 -RA FEW005 BKN009 BKN020 22/21 Q1009 NOSIG RMK 1ST005 5ST009 6SC020 A2982
RJTT 130944Z 17012KT 9000 -RA FEW007 BKN009 BKN025 22/21 Q1010 RMK 1ST007 5ST009 6SC025 A2983
RJTT 130930Z 17010KT 9999 -RA FEW007 SCT010 BKN020 22/21 Q1010 TEMPO FEW008 BKN012 RMK 1ST007 3CU010 6SC020 A2983
RJTT 130900Z 17010KT 9999 -RA FEW007 SCT020 BKN070 22/21 Q1010 TEMPO FEW008 BKN012 RMK 1ST007 4SC020 7AC070 A2983
RJTT 130830Z 17011KT 9999 -RA FEW007 SCT020 BKN080 22/21 Q1010 NOSIG RMK 1ST007 3SC020 7AC080 A2984
RJTT 130800Z 19010KT 9999 -RA FEW009 SCT030 BKN100 22/21 Q1010 NOSIG RMK 2ST009 3SC030 7AC100 A2984
RJTT 130730Z 19009KT 9999 -SHRA FEW011 BKN020 BKN100 22/20 Q1010 NOSIG RMK 1CU011 5CU020 6AC100 A2984
RJTT 130700Z 19009KT 9999 -RA FEW012 SCT020 BKN040 22/20 Q1011 NOSIG RMK 1CU012 4CU020 5SC040 A2985
RJTT 130630Z 20009KT 9999 -RA FEW013 SCT045 BKN090 23/20 Q1010 NOSIG RMK 1CU013 3SC045 5AC090 A2985
RJTT 130600Z 19008KT 140V220 9999 -RA FEW013 BKN045 BKN100 23/20 Q1011 NOSIG RMK 1CU013 5SC045 6AC100 A2985
RJTT 130530Z 19007KT 160V240 9999 -SHRA FEW015 SCT020 BKN045 24/20 Q1011 NOSIG RMK 1CU015 4CU020 5SC045 A2986
RJTT 130500Z 17004KT 120V210 9999 -SHRA FEW015 SCT025 BKN050 23/20 Q1011 BECMG 19014KT RMK 1CU015 4CU025 6SC050 A2986
RJTT 130430Z 12003KT 070V170 9999 VCSH FEW015 SCT025 BKN050 23/20 Q1011 BECMG 19012KT RMK 1CU015 3CU025 5SC050 A2987
RJTT 130400Z 12004KT 080V150 9999 VCSH FEW010 BKN060 BKN130 23/20 Q1011 BECMG 19012KT RMK 1CU010 5SC060 6AC130 A2987
RJTT 130330Z 12004KT 080V150 9999 VCSH FEW010 BKN060 23/20 Q1011 BECMG 19012KT RMK 1CU010 7SC060 A2988
RJTT 130300Z 12004KT 060V190 9999 FEW010 BKN060 BKN/// 23/19 Q1012 BECMG 19012KT RMK 1CU010 6SC060 A2988
RJTT 130230Z 11004KT 070V170 9999 FEW010 SCT013 BKN060 23/20 Q1012 NOSIG RMK 1CU010 4SC013 6SC060 A2988
RJTT 130200Z 11004KT 060V140 9999 FEW010 BKN013 BKN060 22/19 Q1012 BECMG FEW010 BKN018 RMK 1CU010 5SC013 7SC060 A2988
RJTT 130130Z 10005KT 060V140 9999 FEW010 BKN015 BKN060 22/20 Q1011 NOSIG RMK 1CU010 6SC015 7SC060 A2988
RJTT 130100Z 10004KT 9999 FEW008 SCT010 BKN015 21/19 Q1012 NOSIG RMK 1ST008 4SC010 7SC015 A2989
RJTT 130030Z 08004KT 050V120 9999 FEW008 BKN012 21/19 Q1012 BECMG FEW010 BKN015
RJTT 130000Z 07006KT 9999 FEW008 BKN012 21/19 Q1011 BECMG FEW010 BKN015 RMK 1ST008 7SC012 A2988
RJTT 122330Z 06005KT 9999 FEW008 BKN012 20/19 Q1011 BECMG 08006KT FEW010 BKN015
RJTT 122300Z 03006KT 360V070 9999 FEW008 BKN010 20/19 Q1011 BECMG 08006KT RMK 1ST008 7ST010 A2987
RJTT 122230Z 06007KT 9999 FEW008 BKN010 20/19 Q1011 BECMG 08008KT
RJTT 122200Z 06007KT 9999 -RA FEW008 BKN010 20/19 Q1011 BECMG 08008KT RMK 1ST008 7ST010 A2987
RJTT 122130Z 05008KT 9999 FEW008 BKN010 20/19 Q1011 BECMG 08008KT RMK 1ST008 7ST010 A2986
RJTT 122100Z 04008KT 9999 -RA FEW008 BKN010 20/19 Q1011 BECMG 08008KT
RJTT 122030Z 04007KT 350V060 9999 -RA FEW008 BKN012 20/18 Q1010 BECMG 08008KT
RJTT 122000Z 03007KT 360V060 9999 -SHRA FEW008 BKN010 20/18 Q1010 BECMG 08010KT RMK 1ST008 7CU010 A2984
RJTT 121930Z 04009KT 9999 VCSH FEW008 BKN010 20/19 Q1010 BECMG 08010KT TEMPO FEW005 BKN008 RMK 1ST008 7CU010 A2983
RJTT 121900Z 05010KT 9999 FEW008 BKN010 20/18 Q1009 BECMG 08010KT TEMPO FEW005 BKN008 RMK 1ST008 7CU010 A2982
RJTT 121830Z 05011KT 9999 -SHRA FEW007 BKN010 BKN070 20/19 Q1009 BECMG 08012KT TEMPO FEW005 BKN008 RMK 1ST007 5CU010 7AC070 A2981
RJTT 121800Z 06011KT 9999 -SHRA FEW007 BKN010 BKN070 20/19 Q1009 BECMG 08012KT TEMPO FEW005 BKN008 RMK 1ST007 5CU010 7AC070 A2981
RJTT 121730Z 07013KT 9999 FEW006 BKN008 BKN060 20/19 Q1009 NOSIG RMK 1ST006 5ST008 7SC060 A2980
RJTT 121700Z 07020KT 9999 FEW006 BKN008 BKN060 20/20 Q1008 NOSIG RMK 1ST006 5ST008 7SC060 A2979
RJTT 121644Z 08018KT 9999 VCSH FEW005 BKN008 BKN060 20/20 Q1008 RMK 1ST005 5ST008 7SC060 A2979
RJTT 121630Z 08015KT 8000 -SHRA FEW005 SCT008 BKN030 20/19 Q1008 NOSIG RMK 1ST005 4ST008 7CU030 A2979
RJTT 121600Z 08012KT 6000 SHRA FEW010 BKN014 BKN070 20/19 Q1009 BECMG -SHRA FEW010 BKN015 RMK 1CU010 5CU014 7AC070 A2980
RJTT 121530Z 07010KT 9999 -SHRA FEW010 BKN014 BKN070 20/19 Q1009 BECMG FEW010 BKN015 RMK 1CU010 5CU014 7AC070 A2981
RJTT 121500Z 08015KT 9999 -SHRA FEW010 BKN014 BKN070 21/19 Q1009 BECMG FEW010 BKN015 RMK 1CU010 5CU014 7AC070 A2980
RJTT 121430Z 07012KT 9999 -SHRA FEW010 BKN014 BKN070 21/19 Q1009 BECMG FEW010 BKN015 RMK 1CU010 5CU014 7AC070 A2980
RJTT 121400Z 07012KT 9999 -SHRA FEW010 BKN014 BKN070 21/19 Q1009 BECMG FEW010 BKN015 RMK 1CU010 5CU014 7AC070 A2980
RJTT 121343Z 07010KT 9999 -SHRA FEW010 BKN013 BKN060 21/20 Q1009 RMK 1CU010 5CU013 7SC060 A2980
RJTT 121330Z 06009KT 9999 -SHRA FEW012 BKN015 BKN060 21/19 Q1009 BECMG 08010KT RMK 1CU012 5CU015 7SC060 A2980
RJTT 121300Z 04013KT 9999 -SHRA FEW012 BKN015 BKN050 21/19 Q1008 BECMG 08010KT RMK 1CU012 5CU015 7SC050 A2979
RJTT 121230Z 05012KT 9999 -SHRA FEW012 SCT015 BKN060 22/19 Q1008 BECMG 08010KT RMK 1CU012 4CU015 7SC060 A2978
RJTT 121200Z 06013KT 9999 FEW015 BKN060 22/19 Q1007 NOSIG RMK 2CU015 7SC060 A2976 MOD TURB OBS AT 1130Z 10NM S UTIBO BTN 12000FT AND 11000FT IN DES BY B738
RJTT 121130Z 07014KT 9999 FEW015 SCT040 BKN080 22/20 Q1007 NOSIG RMK 2CU015 3SC040 6AC080 A2974
RJTT 121100Z 06013KT 9999 FEW015 BKN080 BKN120 23/20 Q1006 NOSIG RMK 2CU015 5AC080 6AC120 A2971
RJTT 121030Z 06014KT 9999 FEW010 SCT015 BKN080 23/21 Q1006 NOSIG RMK 1ST010 3SC015 5AC080 A2971
RJTT 121000Z 07013KT 9999 FEW010 SCT025 BKN080 24/22 Q1005 NOSIG RMK 1ST010 3CU025 5AC080 A2969
RJTT 120930Z 07015KT 9999 FEW009 SCT015 BKN020 24/22 Q1005 NOSIG RMK 1ST009 3CU015 5CU020 A2968
RJTT 120900Z 06017KT 9999 FEW009 SCT015 BKN110 24/22 Q1004 BECMG 04014KT RMK 1ST009 3CU015 5AC110 A2966
RJTT 120830Z 07017KT 9999 FEW010 FEW040TCU SCT140 BKN/// 25/23 Q1003 BECMG 04014KT RMK 1CU010 1TCU040 3AC140 A2964 TCU 30KM SE MOV SE
RJTT 120818Z 10010KT 9999 FEW020 FEW040TCU BKN140 BKN/// 27/24 Q1003 RMK 1CU020 1TCU040 5AC140 A2963 TCU 30KM E MOV SE
RJTT 120800Z 19007KT 9999 FEW020 FEW040TCU BKN120 BKN/// 29/23 Q1002 BECMG 02008KT RMK 1CU020 1TCU040 5AC120 A2961 TCU 30KM E MOV UNKNOWN
RJTT 120730Z 20010KT 9999 FEW030 FEW040TCU SCT150 BKN/// 30/23 Q1002 BECMG 36006KT RMK 1CU030 1TCU040 3AC150 A2959 TCU 40KM E MOV UNKNOWN
RJTT 120700Z 19011KT 9999 FEW030 SCT150 BKN/// 30/23 Q1002 BECMG 36006KT RMK 1CU030 3AC150 A2959
RJTT 120630Z 19012KT 9999 FEW030 FEW040TCU SCT050 BKN/// 30/24 Q1001 NOSIG RMK 1CU030 1TCU040 3CU050 A2958 MOD TURB OBS AT 0605Z 5NM S SEIKO BTN 9000FT AND 15000FT BY B763 TCU 40KM E MOV UNKNOWN
RJTT 120600Z 19012KT 9999 FEW035 FEW040TCU SCT050 BKN/// 30/23 Q1001 NOSIG RMK 1CU035 1TCU040 3CU050 A2958 TCU 40KM E MOV UNKNOWN
RJTT 120530Z 19012KT 9999 FEW035 SCT120 BKN/// 29/23 Q1001 BECMG 36006KT
RJTT 120500Z 18012KT 9999 FEW035 SCT040 BKN/// 31/24 Q1001 BECMG 36006KT RMK 1CU035 3CU040 A2957
RJTT 120430Z 18010KT 9999 FEW030 BKN/// 31/25 Q1001 NOSIG RMK 1CU030 A2957
RJTT 120400Z 16010KT 9999 FEW025 BKN/// 30/24 Q1001 NOSIG RMK 1CU025 A2957
RJTT 120330Z 16011KT 9999 FEW020 BKN/// 30/25 Q1001 NOSIG RMK 1CU020 A2957
RJTT 120300Z 16011KT 130V210 9999 FEW020 BKN/// 29/25 Q1001 NOSIG RMK 1CU020 A2958
RJTT 120230Z 17012KT 9999 FEW020 BKN/// 29/24 Q1001 NOSIG RMK 1CU020 A2958
RJTT 120200Z 18011KT 9999 FEW015 BKN/// 29/24 Q1001 NOSIG RMK 1CU015 A2958
RJTT 120130Z 17013KT 9999 FEW015 BKN/// 29/25 Q1002 NOSIG RMK 1CU015 A2959
RJTT 120100Z 19012KT 9999 FEW015 SCT025 BKN/// 29/24 Q1002 NOSIG RMK 1CU015 3CU025 A2959
RJTT 120030Z 20012KT 9999 FEW015 BKN025 BKN/// 29/24 Q1002 NOSIG RMK 1CU015 5CU025 A2960
RJTT 120000Z 19011KT 9999 SCT025 BKN/// 29/24 Q1002 NOSIG RMK 4CU025 A2961
RJTT 112330Z 18011KT 9999 SCT025 BKN/// 29/23 Q1002 NOSIG
RJTT 112300Z 18006KT 140V250 9999 FEW020 BKN/// 29/24 Q1002 NOSIG RMK 1CU020 A2961
RJTT 112230Z 24007KT 210V310 9999 FEW020 BKN/// 29/24 Q1002 BECMG 22008KT
RJTT 112200Z 21010KT 9999 FEW020 BKN/// 28/24 Q1002 NOSIG RMK 1CU020 A2960
RJTT 112130Z 20011KT 9999 FEW020 BKN180 BKN/// 26/24 Q1002 NOSIG RMK 1CU020 6AC180 A2959
RJTT 112100Z 22009KT 9999 FEW020 BKN180 26/24 Q1002 NOSIG RMK 1CU020 7AC180 A2959
RJTT 112030Z 24006KT 210V290 9999 VCSH FEW010 BKN170 26/24 Q1002 BECMG 23010KT RMK 1CU010 7AC170 A2959